Time;durP1;ratioP1;P1;durP2;ratioP2;P2;SDS_P1;SDS_P2;PMS_P1;PMS_P2;Temp;Humidity;BMP_temperature;BMP_pressure;BME280_temperature;BME280_humidity;BME280_pressure;Samples;Min_cycle;Max_cycle;Signal;HPM_P1;HPM_P2
2021/11/14 00:00:19;;;;;;;17.50;15.80;;;8.90;99.90;;;;;;5022597;28;20185;-90
2021/11/14 00:02:46;;;;;;;17.63;15.83;;;8.80;99.90;;;;;;5030230;28;20186;-90
2021/11/14 00:05:12;;;;;;;17.63;15.83;;;8.80;99.90;;;;;;5030455;28;20197;-91
2021/11/14 00:07:38;;;;;;;16.53;14.93;;;8.80;99.90;;;;;;5021073;28;20225;-89
2021/11/14 00:10:05;;;;;;;21.17;17.03;;;8.90;99.90;;;;;;5022761;28;20180;-91
2021/11/14 00:12:31;;;;;;;17.10;15.33;;;8.80;99.90;;;;;;4983675;28;20193;-90
2021/11/14 00:14:57;;;;;;;17.70;15.90;;;8.90;99.90;;;;;;5027805;28;20207;-90
2021/11/14 00:17:23;;;;;;;17.83;15.60;;;8.90;99.90;;;;;;5039711;28;20217;-90
2021/11/14 00:19:49;;;;;;;17.70;15.93;;;8.90;99.90;;;;;;5014808;28;20577;-90
2021/11/14 00:22:14;;;;;;;17.63;15.83;;;8.80;99.90;;;;;;5028744;28;20668;-90
2021/11/14 00:24:40;;;;;;;19.10;16.50;;;8.80;99.90;;;;;;5040194;28;20232;-90
2021/11/14 00:27:06;;;;;;;18.90;16.97;;;8.80;99.90;;;;;;5038999;28;20233;-90
2021/11/14 00:29:32;;;;;;;17.57;15.70;;;8.80;99.90;;;;;;5039807;28;20667;-90
2021/11/14 00:31:58;;;;;;;17.80;15.23;;;8.80;99.90;;;;;;5019639;28;20197;-90
2021/11/14 00:34:24;;;;;;;19.07;16.67;;;8.80;99.90;;;;;;5021333;28;20249;-90
2021/11/14 00:36:53;;;;;;;18.50;16.60;;;8.80;99.90;;;;;;5038459;28;20210;-90
2021/11/14 00:39:19;;;;;;;17.70;15.87;;;8.90;99.90;;;;;;5038491;28;20293;-90
2021/11/14 00:41:46;;;;;;;18.13;16.37;;;9.00;99.90;;;;;;5035434;28;20659;-90
2021/11/14 00:44:13;;;;;;;17.70;15.83;;;9.10;99.90;;;;;;5043341;28;20196;-90
2021/11/14 00:46:39;;;;;;;18.57;15.53;;;9.10;99.90;;;;;;5022181;28;20229;-90
2021/11/14 00:49:05;;;;;;;19.43;16.03;;;9.10;99.90;;;;;;5018509;28;20200;-92
2021/11/14 00:51:31;;;;;;;19.70;17.10;;;9.00;99.90;;;;;;5039723;28;20184;-89
2021/11/14 00:54:01;;;;;;;18.77;16.43;;;8.90;99.90;;;;;;5036583;28;20206;-90
2021/11/14 00:56:28;;;;;;;18.73;16.17;;;9.00;99.90;;;;;;5038888;28;20327;-89
2021/11/14 00:58:54;;;;;;;17.80;15.87;;;9.00;99.90;;;;;;5005162;28;20584;-90
2021/11/14 01:01:20;;;;;;;18.77;16.77;;;9.00;99.90;;;;;;5040573;28;20192;-91
2021/11/14 01:03:46;;;;;;;18.10;16.40;;;9.00;99.90;;;;;;5037355;28;20205;-92
2021/11/14 01:06:13;;;;;;;18.23;16.33;;;9.00;99.90;;;;;;5054886;28;20260;-92
2021/11/14 01:08:39;;;;;;;19.67;16.43;;;9.00;99.90;;;;;;5033359;28;20237;-89
2021/11/14 01:11:07;;;;;;;16.03;14.37;;;9.00;99.90;;;;;;5037113;28;20186;-90
2021/11/14 01:13:34;;;;;;;16.93;15.23;;;9.10;99.90;;;;;;5038923;28;20197;-90
2021/11/14 01:16:01;;;;;;;16.80;15.20;;;9.20;99.90;;;;;;5039166;28;20217;-89
2021/11/14 01:18:27;;;;;;;17.40;15.60;;;9.10;99.90;;;;;;5003353;28;20254;-89
2021/11/14 01:20:57;;;;;;;19.20;16.43;;;9.00;99.90;;;;;;5017780;28;20196;-89
2021/11/14 01:23:23;;;;;;;16.27;14.67;;;9.00;99.90;;;;;;5038600;28;20538;-89
2021/11/14 01:25:49;;;;;;;18.37;16.57;;;9.00;99.90;;;;;;5041382;28;20183;-91
2021/11/14 01:28:16;;;;;;;16.50;14.90;;;9.10;99.90;;;;;;5023280;28;20237;-93
2021/11/14 01:30:48;;;;;;;20.03;16.13;;;9.00;99.90;;;;;;5046778;28;20190;-90
2021/11/14 01:33:15;;;;;;;17.97;16.03;;;9.10;99.90;;;;;;5047369;28;20175;-92
2021/11/14 01:35:41;;;;;;;17.03;15.37;;;9.10;99.90;;;;;;5039324;28;20217;-93
2021/11/14 01:38:09;;;;;;;17.47;14.57;;;9.10;99.90;;;;;;5057641;28;20232;-91
2021/11/14 01:40:41;;;;;;;16.10;14.50;;;9.00;99.90;;;;;;5044403;28;20187;-90
2021/11/14 01:43:10;;;;;;;16.37;14.67;;;9.00;99.90;;;;;;5042017;28;20289;-90
2021/11/14 01:45:37;;;;;;;17.20;15.07;;;9.00;99.90;;;;;;5026925;28;20203;-90
2021/11/14 01:48:04;;;;;;;16.57;14.93;;;9.00;99.90;;;;;;5025058;28;20233;-90
2021/11/14 01:50:30;;;;;;;16.73;14.97;;;9.00;99.90;;;;;;5041171;28;20605;-91
2021/11/14 01:52:56;;;;;;;16.93;15.17;;;9.00;99.90;;;;;;5022162;28;20203;-89
2021/11/14 01:55:25;;;;;;;16.30;14.80;;;9.10;99.90;;;;;;5032924;28;20193;-90
2021/11/14 01:57:52;;;;;;;16.10;14.43;;;9.10;99.90;;;;;;5010377;28;20233;-90
2021/11/14 02:00:33;;;;;;;17.67;15.63;;;9.10;99.90;;;;;;5025996;28;20705;-90
2021/11/14 02:02:59;;;;;;;18.57;16.60;;;9.10;99.90;;;;;;5025099;28;20191;-89
2021/11/14 02:05:28;;;;;;;18.70;16.80;;;9.10;99.90;;;;;;5024690;28;20186;-91
2021/11/14 02:07:57;;;;;;;22.93;18.63;;;9.10;99.90;;;;;;5022777;28;20798;-90
2021/11/14 02:10:26;;;;;;;20.63;17.87;;;9.10;99.90;;;;;;5040820;28;20438;-90
2021/11/14 02:12:52;;;;;;;24.77;19.30;;;9.10;99.90;;;;;;5025262;28;20202;-90
2021/11/14 02:15:18;;;;;;;22.23;19.90;;;9.10;99.90;;;;;;5027074;28;20233;-89
2021/11/14 02:17:44;;;;;;;18.30;16.30;;;9.10;99.90;;;;;;5043231;28;20223;-90
2021/11/14 02:20:11;;;;;;;20.17;17.97;;;9.10;99.90;;;;;;5023861;28;20252;-90
2021/11/14 02:22:37;;;;;;;20.23;16.67;;;9.20;99.90;;;;;;5037369;28;20407;-91
2021/11/14 02:25:06;;;;;;;16.77;14.97;;;9.10;99.90;;;;;;5023889;28;20184;-89
2021/11/14 02:27:32;;;;;;;17.40;15.63;;;9.10;99.90;;;;;;5039413;28;20232;-90
2021/11/14 02:29:59;;;;;;;17.00;15.30;;;9.10;99.90;;;;;;5036662;28;20206;-92
2021/11/14 02:32:25;;;;;;;16.57;14.97;;;9.10;99.90;;;;;;5006996;28;20199;-90
2021/11/14 02:34:50;;;;;;;16.90;15.00;;;9.10;99.90;;;;;;5038189;28;20283;-90
2021/11/14 02:37:16;;;;;;;16.33;14.77;;;9.10;99.90;;;;;;5042085;28;20204;-93
2021/11/14 02:39:42;;;;;;;15.40;13.97;;;9.10;99.90;;;;;;5058224;28;20219;-92
2021/11/14 02:42:08;;;;;;;17.00;15.30;;;9.10;99.90;;;;;;5032477;28;20202;-90
2021/11/14 02:44:34;;;;;;;15.73;14.10;;;9.20;99.90;;;;;;5014406;28;20667;-90
2021/11/14 02:47:00;;;;;;;16.83;15.00;;;9.20;99.90;;;;;;5014338;28;20286;-89
2021/11/14 02:49:26;;;;;;;16.17;14.67;;;9.30;99.90;;;;;;5020118;28;20233;-89
2021/11/14 02:51:53;;;;;;;15.07;13.67;;;9.20;99.90;;;;;;5020893;28;20222;-89
2021/11/14 02:54:19;;;;;;;17.50;15.70;;;9.20;99.90;;;;;;5022047;28;20214;-89
2021/11/14 02:56:44;;;;;;;17.57;15.87;;;9.10;99.90;;;;;;5024267;28;20260;-91
2021/11/14 02:59:11;;;;;;;16.30;14.60;;;9.10;99.90;;;;;;5038415;28;20215;-91
2021/11/14 03:01:45;;;;;;;16.73;15.10;;;9.10;99.90;;;;;;5038367;28;20323;-91
2021/11/14 03:04:15;;;;;;;17.63;15.87;;;9.10;99.90;;;;;;5009519;28;20285;-90
2021/11/14 03:06:41;;;;;;;17.77;15.90;;;9.10;99.90;;;;;;5015502;28;20223;-90
2021/11/14 03:09:07;;;;;;;17.20;15.40;;;9.10;99.90;;;;;;5036769;28;20212;-91
2021/11/14 03:11:33;;;;;;;15.37;13.87;;;9.10;99.90;;;;;;5016990;28;20213;-90
2021/11/14 03:13:59;;;;;;;16.60;14.90;;;9.10;99.90;;;;;;5038979;28;20211;-91
2021/11/14 03:16:26;;;;;;;16.83;15.13;;;9.20;99.90;;;;;;5037753;28;20218;-90
2021/11/14 03:18:53;;;;;;;16.63;14.97;;;9.30;99.90;;;;;;5038615;28;20252;-91
2021/11/14 03:21:19;;;;;;;17.20;14.73;;;9.30;99.90;;;;;;5039175;28;20198;-91
2021/11/14 03:23:44;;;;;;;15.27;13.77;;;9.30;99.90;;;;;;5005164;28;20677;-90
2021/11/14 03:26:11;;;;;;;16.37;14.77;;;9.30;99.90;;;;;;5018643;28;20202;-90
2021/11/14 03:28:36;;;;;;;15.93;14.43;;;9.40;99.90;;;;;;5022653;28;20208;-90
2021/11/14 03:31:03;;;;;;;15.60;14.10;;;9.40;99.90;;;;;;5027151;28;20286;-90
2021/11/14 03:33:30;;;;;;;15.30;13.70;;;9.30;99.90;;;;;;5041439;28;20203;-90
2021/11/14 03:35:59;;;;;;;14.83;13.17;;;9.20;99.90;;;;;;5023956;28;20707;-92
2021/11/14 03:38:36;;;;;;;16.03;14.20;;;9.20;99.90;;;;;;5040762;28;20705;-90
2021/11/14 03:41:04;;;;;;;14.93;13.40;;;9.20;99.90;;;;;;5039074;28;20662;-91
2021/11/14 03:43:33;;;;;;;14.43;13.03;;;9.20;99.90;;;;;;5039215;28;20187;-90
2021/11/14 03:45:58;;;;;;;18.20;13.93;;;9.20;99.90;;;;;;5005976;28;20203;-90
2021/11/14 03:48:25;;;;;;;15.07;13.67;;;9.20;99.90;;;;;;5021598;28;20234;-90
2021/11/14 03:50:52;;;;;;;16.37;14.70;;;9.20;99.90;;;;;;5021761;28;20261;-91
2021/11/14 03:53:18;;;;;;;20.27;14.03;;;9.10;99.90;;;;;;5040283;28;20554;-90
2021/11/14 03:55:44;;;;;;;15.70;14.30;;;9.30;99.90;;;;;;5039095;28;20195;-90
2021/11/14 03:58:10;;;;;;;14.47;13.07;;;9.20;99.90;;;;;;5041189;28;20638;-90
2021/11/14 04:00:39;;;;;;;15.23;13.70;;;9.20;99.90;;;;;;5037822;28;20197;-92
2021/11/14 04:03:07;;;;;;;14.37;12.87;;;9.30;99.90;;;;;;4991530;28;20198;-90
2021/11/14 04:05:33;;;;;;;14.80;13.23;;;9.30;99.90;;;;;;5016521;28;20298;-90
2021/11/14 04:08:00;;;;;;;14.67;13.13;;;9.20;99.90;;;;;;5033139;28;20222;-92
2021/11/14 04:10:27;;;;;;;13.80;12.43;;;9.20;99.90;;;;;;5055378;28;20187;-94
2021/11/14 04:12:53;;;;;;;14.30;12.90;;;9.20;99.90;;;;;;5048596;28;20191;-92
2021/11/14 04:15:19;;;;;;;13.90;12.50;;;9.20;99.90;;;;;;5018442;28;20634;-90
2021/11/14 04:17:45;;;;;;;14.40;12.80;;;9.20;99.90;;;;;;5009396;28;20222;-94
2021/11/14 04:20:13;;;;;;;14.60;12.13;;;9.30;99.90;;;;;;5038350;28;20214;-93
2021/11/14 04:22:40;;;;;;;14.67;12.93;;;9.30;99.90;;;;;;5046865;28;20337;-90
2021/11/14 04:25:08;;;;;;;16.97;13.53;;;9.40;99.90;;;;;;5031512;28;20218;-90
2021/11/14 04:27:34;;;;;;;12.67;11.47;;;9.40;99.90;;;;;;5033992;28;20261;-91
2021/11/14 04:29:59;;;;;;;13.60;12.20;;;9.60;99.90;;;;;;5016910;28;20191;-90
2021/11/14 04:32:25;;;;;;;17.00;15.33;;;9.60;99.90;;;;;;4999635;28;20226;-90
2021/11/14 04:34:51;;;;;;;15.27;13.67;;;9.50;99.90;;;;;;4999851;28;20184;-90
2021/11/14 04:37:16;;;;;;;12.83;11.53;;;9.40;99.90;;;;;;5034614;28;20265;-91
2021/11/14 04:39:42;;;;;;;14.33;12.83;;;9.30;99.90;;;;;;4997780;28;20219;-91
2021/11/14 04:42:08;;;;;;;13.30;11.80;;;9.20;99.90;;;;;;5014483;28;20277;-92
2021/11/14 04:44:38;;;;;;;13.23;11.63;;;9.20;99.90;;;;;;5032755;28;20289;-91
2021/11/14 04:47:04;;;;;;;11.50;10.30;;;9.20;99.90;;;;;;5032798;28;20282;-92
2021/11/14 04:49:30;;;;;;;11.53;10.30;;;9.30;99.90;;;;;;5016644;28;20192;-91
2021/11/14 04:51:55;;;;;;;10.57;9.47;;;9.20;99.90;;;;;;5047848;28;20183;-92
2021/11/14 04:54:22;;;;;;;11.47;10.30;;;9.20;99.90;;;;;;5052631;28;20199;-92
2021/11/14 04:56:49;;;;;;;11.20;10.20;;;9.20;99.90;;;;;;5014345;28;20223;-91
2021/11/14 04:59:15;;;;;;;10.30;9.40;;;9.30;99.90;;;;;;5034773;28;20215;-90
2021/11/14 05:01:41;;;;;;;10.50;9.33;;;9.20;99.90;;;;;;5015016;28;20217;-89
2021/11/14 05:04:07;;;;;;;10.00;9.03;;;9.40;99.90;;;;;;5020886;28;20302;-89
2021/11/14 05:06:33;;;;;;;9.70;8.80;;;9.50;99.90;;;;;;5034378;28;20272;-90
2021/11/14 05:08:59;;;;;;;10.20;9.30;;;9.50;99.90;;;;;;5029930;28;20226;-90
2021/11/14 05:11:25;;;;;;;10.47;9.57;;;9.50;99.90;;;;;;5016175;28;20197;-91
2021/11/14 05:13:51;;;;;;;10.10;9.10;;;9.50;99.90;;;;;;5020661;28;20227;-90
2021/11/14 05:16:17;;;;;;;8.90;8.10;;;9.40;99.90;;;;;;5035886;28;20245;-90
2021/11/14 05:18:44;;;;;;;10.40;9.40;;;9.50;99.90;;;;;;5002826;28;20245;-90
2021/11/14 05:21:10;;;;;;;8.93;8.03;;;9.50;99.90;;;;;;5032230;28;20542;-90
2021/11/14 05:23:37;;;;;;;8.60;7.80;;;9.50;99.90;;;;;;5000694;28;20256;-90
2021/11/14 05:26:03;;;;;;;10.43;9.53;;;9.50;99.90;;;;;;5033596;28;20701;-89
2021/11/14 05:28:29;;;;;;;10.00;9.10;;;9.40;99.90;;;;;;5017224;28;20828;-90
2021/11/14 05:30:54;;;;;;;9.83;8.93;;;9.30;99.90;;;;;;5028973;28;20194;-90
2021/11/14 05:33:20;;;;;;;10.03;9.13;;;9.30;99.90;;;;;;5018933;28;20195;-89
2021/11/14 05:35:46;;;;;;;8.80;8.00;;;9.40;99.90;;;;;;4997276;28;20210;-90
2021/11/14 05:38:12;;;;;;;9.63;8.83;;;9.30;99.90;;;;;;5027471;28;20603;-92
2021/11/14 05:40:40;;;;;;;9.30;8.50;;;9.30;99.90;;;;;;5013299;28;20194;-91
2021/11/14 05:43:06;;;;;;;8.73;8.03;;;9.40;99.90;;;;;;5026165;28;20273;-90
2021/11/14 05:45:32;;;;;;;8.67;7.97;;;9.50;99.90;;;;;;5016201;28;20234;-90
2021/11/14 05:47:57;;;;;;;9.20;8.30;;;9.40;99.90;;;;;;5005102;28;20236;-90
2021/11/14 05:50:24;;;;;;;9.67;8.87;;;9.50;99.90;;;;;;4999927;28;20261;-90
2021/11/14 05:52:50;;;;;;;9.73;8.27;;;9.40;99.90;;;;;;5032472;28;20197;-91
2021/11/14 05:55:16;;;;;;;10.40;9.47;;;9.50;99.90;;;;;;5034216;28;20199;-90
2021/11/14 06:00:30;;;;;;;9.53;8.63;;;9.50;99.90;;;;;;5017781;28;20255;-90
2021/11/14 06:03:41;;;;;;;9.57;8.73;;;9.40;99.90;;;;;;5032963;28;20198;-90
2021/11/14 06:05:45;;;;;;;9.83;8.87;;;9.40;99.90;;;;;;5016513;28;20242;-90
2021/11/14 06:08:11;;;;;;;9.67;8.87;;;9.30;99.90;;;;;;4999685;28;20234;-92
2021/11/14 06:10:38;;;;;;;9.43;8.63;;;9.30;99.90;;;;;;5039382;28;20184;-94
2021/11/14 06:13:04;;;;;;;9.87;8.97;;;9.30;99.90;;;;;;5044762;28;20320;-90
2021/11/14 06:15:30;;;;;;;9.57;8.67;;;9.30;99.90;;;;;;5027402;28;20556;-92
2021/11/14 06:17:56;;;;;;;11.17;9.97;;;9.30;99.90;;;;;;5014341;28;20245;-90
2021/11/14 06:20:22;;;;;;;10.00;9.10;;;9.30;99.90;;;;;;5013898;28;20647;-90
2021/11/14 06:22:49;;;;;;;10.13;9.00;;;9.40;99.90;;;;;;5029793;28;20190;-90
2021/11/14 06:25:15;;;;;;;10.60;9.50;;;9.40;99.90;;;;;;5019341;28;20244;-90
2021/11/14 06:27:41;;;;;;;13.13;12.13;;;9.40;99.90;;;;;;5033857;28;20244;-91
2021/11/14 06:30:11;;;;;;;30.73;28.30;;;9.40;99.90;;;;;;5035223;28;20226;-90
2021/11/14 06:32:37;;;;;;;13.60;12.40;;;9.40;99.90;;;;;;5017806;28;20403;-91
2021/11/14 06:35:03;;;;;;;13.27;11.87;;;9.40;99.90;;;;;;5034774;28;20599;-90
2021/11/14 06:37:29;;;;;;;15.53;14.13;;;9.30;99.90;;;;;;5032716;28;20306;-90
2021/11/14 06:39:55;;;;;;;12.90;11.80;;;9.30;99.90;;;;;;5034409;28;20193;-91
2021/11/14 06:42:21;;;;;;;13.23;12.13;;;9.30;99.90;;;;;;5034399;28;20218;-90
2021/11/14 06:44:46;;;;;;;12.47;11.27;;;9.30;99.90;;;;;;5014785;28;20201;-89
2021/11/14 06:47:13;;;;;;;13.00;11.73;;;9.30;99.90;;;;;;5023123;28;20228;-91
2021/11/14 06:49:39;;;;;;;13.57;12.40;;;9.30;99.90;;;;;;5035101;28;20208;-90
2021/11/14 06:52:05;;;;;;;11.70;10.70;;;9.30;99.90;;;;;;5021386;28;20259;-90
2021/11/14 06:54:31;;;;;;;12.57;11.47;;;9.40;99.90;;;;;;5028308;28;20228;-94
2021/11/14 06:56:57;;;;;;;12.50;11.50;;;9.30;99.90;;;;;;5042232;28;20209;-90
2021/11/14 06:59:24;;;;;;;13.03;11.93;;;9.30;99.90;;;;;;5016505;28;20213;-90
2021/11/14 07:01:49;;;;;;;12.63;11.63;;;9.30;99.90;;;;;;5036129;28;20201;-93
2021/11/14 07:04:15;;;;;;;12.57;11.40;;;9.30;99.90;;;;;;5056756;28;20208;-94
2021/11/14 07:06:41;;;;;;;17.13;15.83;;;9.30;99.90;;;;;;5022828;28;20213;-90
2021/11/14 07:09:08;;;;;;;13.97;12.70;;;9.30;99.90;;;;;;5030421;28;20193;-90
2021/11/14 07:11:34;;;;;;;12.93;11.80;;;9.30;99.90;;;;;;5015666;28;20293;-90
2021/11/14 07:14:00;;;;;;;12.07;11.00;;;9.30;99.90;;;;;;5014337;28;20262;-91
2021/11/14 07:16:27;;;;;;;13.47;12.30;;;9.20;99.90;;;;;;5014282;28;20213;-90
2021/11/14 07:18:54;;;;;;;14.57;12.33;;;9.20;99.90;;;;;;5013727;28;20216;-90
2021/11/14 07:21:21;;;;;;;13.77;12.50;;;9.20;99.90;;;;;;4998000;28;20197;-92
2021/11/14 07:23:47;;;;;;;13.20;11.83;;;9.20;99.90;;;;;;5014237;28;20208;-91
2021/11/14 07:26:13;;;;;;;12.83;11.53;;;9.20;99.90;;;;;;5016682;28;20710;-90
2021/11/14 07:28:38;;;;;;;13.37;11.97;;;9.20;99.90;;;;;;5015155;28;20215;-92
2021/11/14 07:31:04;;;;;;;12.73;11.63;;;9.20;99.90;;;;;;5032485;28;20204;-90
2021/11/14 07:33:30;;;;;;;13.30;12.17;;;9.20;99.90;;;;;;5016228;28;20481;-90
2021/11/14 07:35:56;;;;;;;14.23;12.93;;;9.10;99.90;;;;;;5032387;28;20239;-90
2021/11/14 07:38:21;;;;;;;14.97;13.63;;;9.20;99.90;;;;;;5029758;28;20221;-90
2021/11/14 07:40:47;;;;;;;15.43;14.03;;;9.20;99.90;;;;;;5028323;28;20235;-90
2021/11/14 07:43:13;;;;;;;16.03;14.43;;;9.20;99.90;;;;;;4995697;28;20208;-90
2021/11/14 07:45:39;;;;;;;16.20;14.77;;;9.20;99.90;;;;;;5010339;28;20205;-90
2021/11/14 07:48:07;;;;;;;16.93;15.33;;;9.20;99.90;;;;;;5015026;28;20220;-90
2021/11/14 07:50:33;;;;;;;18.03;16.43;;;9.20;99.90;;;;;;5023822;28;20224;-90
2021/11/14 07:53:00;;;;;;;17.90;16.00;;;9.20;99.90;;;;;;5027232;28;20528;-90
2021/11/14 07:55:26;;;;;;;15.97;14.37;;;9.20;99.90;;;;;;5023321;28;20284;-90
2021/11/14 07:57:52;;;;;;;17.77;16.07;;;9.10;99.90;;;;;;5029619;28;20213;-90
2021/11/14 08:00:21;;;;;;;18.13;16.23;;;9.20;99.90;;;;;;5027261;28;20217;-90
2021/11/14 08:02:47;;;;;;;17.80;16.07;;;9.20;99.90;;;;;;5022151;28;20248;-90
2021/11/14 08:05:14;;;;;;;18.43;16.67;;;9.20;99.90;;;;;;5006900;28;20190;-90
2021/11/14 08:07:40;;;;;;;18.67;16.87;;;9.20;99.90;;;;;;5019341;28;20673;-90
2021/11/14 08:10:07;;;;;;;18.97;17.10;;;9.20;99.90;;;;;;5022944;28;20201;-90
2021/11/14 08:12:33;;;;;;;19.57;17.63;;;9.20;99.90;;;;;;5028769;28;20242;-90
2021/11/14 08:14:59;;;;;;;19.97;17.93;;;9.20;99.90;;;;;;5028734;28;20192;-90
2021/11/14 08:17:25;;;;;;;20.87;18.97;;;9.20;99.90;;;;;;5009349;28;20766;-90
2021/11/14 08:19:51;;;;;;;23.80;21.43;;;9.20;99.90;;;;;;5023843;28;20243;-90
2021/11/14 08:22:19;;;;;;;32.93;29.53;;;9.20;99.90;;;;;;5028956;28;20185;-90
2021/11/14 08:24:45;;;;;;;33.73;29.57;;;9.20;99.90;;;;;;5009202;28;20277;-90
2021/11/14 08:27:11;;;;;;;51.93;45.93;;;9.30;99.90;;;;;;5022660;28;20252;-90
2021/11/14 08:29:37;;;;;;;29.27;26.43;;;9.30;99.90;;;;;;5010478;28;20283;-90
2021/11/14 08:32:03;;;;;;;23.20;21.00;;;9.40;99.90;;;;;;5024230;28;20213;-90
2021/11/14 08:34:29;;;;;;;28.13;25.33;;;9.30;99.90;;;;;;5010305;28;20545;-90
2021/11/14 08:36:55;;;;;;;24.23;21.93;;;9.50;99.90;;;;;;5032102;28;20268;-90
2021/11/14 08:39:20;;;;;;;25.80;23.40;;;9.60;99.90;;;;;;5009108;28;20716;-90
2021/11/14 08:41:47;;;;;;;21.97;19.97;;;9.60;99.90;;;;;;5027096;28;20181;-90
2021/11/14 08:44:13;;;;;;;19.60;17.80;;;9.60;99.90;;;;;;5024099;28;20197;-90
2021/11/14 08:46:39;;;;;;;19.20;17.33;;;9.70;99.90;;;;;;5026679;28;20266;-90
2021/11/14 08:49:05;;;;;;;21.83;19.70;;;9.70;99.90;;;;;;5000152;28;20238;-90
2021/11/14 08:51:31;;;;;;;21.10;19.17;;;9.70;99.90;;;;;;5019088;28;20684;-90
2021/11/14 08:53:59;;;;;;;21.73;19.60;;;9.80;99.90;;;;;;5011444;28;20200;-90
2021/11/14 08:56:32;;;;;;;20.27;18.17;;;9.90;99.90;;;;;;5007089;28;20200;-90
2021/11/14 08:58:59;;;;;;;21.67;19.47;;;9.90;99.90;;;;;;5024893;28;20213;-90
2021/11/14 09:01:25;;;;;;;21.93;19.67;;;10.00;99.90;;;;;;5021235;28;20695;-90
2021/11/14 09:03:51;;;;;;;20.60;18.60;;;10.00;99.90;;;;;;5022464;28;20197;-90
2021/11/14 09:06:17;;;;;;;22.07;19.80;;;10.00;99.90;;;;;;5011655;28;20556;-90
2021/11/14 09:08:43;;;;;;;20.07;18.07;;;10.10;99.90;;;;;;5027794;28;20197;-90
2021/11/14 09:11:09;;;;;;;20.70;18.57;;;10.10;99.90;;;;;;5011027;28;20205;-90
2021/11/14 09:13:35;;;;;;;19.97;18.13;;;10.10;99.90;;;;;;4999365;28;20230;-90
2021/11/14 09:16:02;;;;;;;21.57;19.57;;;10.20;99.90;;;;;;5009991;28;20193;-90
2021/11/14 09:18:29;;;;;;;19.90;17.97;;;10.20;99.90;;;;;;5022493;28;20221;-90
2021/11/14 09:20:55;;;;;;;19.90;17.93;;;10.20;99.90;;;;;;5020819;28;20189;-90
2021/11/14 09:23:22;;;;;;;20.10;17.97;;;10.20;99.90;;;;;;4995539;28;20636;-90
2021/11/14 09:25:48;;;;;;;19.17;17.37;;;10.20;99.90;;;;;;5021706;28;20688;-90
2021/11/14 09:28:16;;;;;;;23.87;21.53;;;10.10;99.90;;;;;;5025640;28;20225;-90
2021/11/14 09:30:44;;;;;;;22.17;20.00;;;10.20;99.90;;;;;;5028336;28;20259;-90
2021/11/14 09:33:12;;;;;;;21.33;19.13;;;10.20;99.90;;;;;;5013429;28;20558;-90
2021/11/14 09:35:38;;;;;;;19.03;17.23;;;10.20;99.90;;;;;;5034585;28;20249;-90
2021/11/14 09:38:05;;;;;;;20.43;18.43;;;10.20;99.90;;;;;;5017454;28;20223;-91
2021/11/14 09:40:30;;;;;;;20.67;18.77;;;10.20;99.90;;;;;;5031668;28;20186;-90
2021/11/14 09:42:57;;;;;;;20.50;18.50;;;10.30;99.90;;;;;;5047827;28;20212;-90
2021/11/14 09:45:32;;;;;;;18.60;16.73;;;10.30;99.90;;;;;;5029732;28;20252;-90
2021/11/14 09:47:59;;;;;;;18.97;17.10;;;10.40;99.90;;;;;;5033900;28;20701;-91
2021/11/14 09:50:25;;;;;;;20.37;18.47;;;10.40;99.90;;;;;;5008618;28;20221;-90
2021/11/14 09:52:52;;;;;;;18.37;16.60;;;10.50;99.90;;;;;;5025320;28;20205;-90
2021/11/14 09:55:18;;;;;;;18.13;16.27;;;10.50;99.90;;;;;;5026798;28;20297;-90
2021/11/14 09:57:45;;;;;;;18.87;17.10;;;10.50;99.90;;;;;;5026005;28;20376;-90
2021/11/14 10:00:14;;;;;;;19.30;17.50;;;10.50;99.90;;;;;;5032518;28;20803;-90
2021/11/14 10:02:40;;;;;;;18.50;16.73;;;10.50;99.90;;;;;;5008629;28;20193;-90
2021/11/14 10:05:08;;;;;;;18.90;17.20;;;10.50;99.90;;;;;;5032033;28;20194;-90
2021/11/14 10:07:34;;;;;;;22.63;20.33;;;10.40;99.90;;;;;;5028443;28;20209;-90
2021/11/14 10:10:00;;;;;;;19.83;17.83;;;10.30;99.90;;;;;;5012708;28;20189;-90
2021/11/14 10:12:31;;;;;;;19.80;17.77;;;10.40;99.90;;;;;;5034483;28;20204;-90
2021/11/14 10:15:16;;;;;;;19.10;17.20;;;10.30;99.90;;;;;;5032978;28;20720;-90
2021/11/14 10:17:48;;;;;;;19.00;17.27;;;10.30;99.90;;;;;;5032876;28;20227;-89
2021/11/14 10:20:17;;;;;;;19.90;17.80;;;10.40;99.90;;;;;;5015124;28;20311;-90
2021/11/14 10:22:48;;;;;;;18.90;17.00;;;10.40;99.90;;;;;;5011809;28;20181;-89
2021/11/14 10:25:16;;;;;;;21.03;19.03;;;10.50;99.90;;;;;;5028390;28;20194;-89
2021/11/14 10:27:46;;;;;;;19.63;17.83;;;10.50;99.90;;;;;;5006722;28;20214;-89
2021/11/14 10:30:12;;;;;;;24.17;21.87;;;10.60;99.90;;;;;;5022562;28;20185;-90
2021/11/14 10:32:39;;;;;;;19.93;18.13;;;10.80;99.90;;;;;;5030090;28;20269;-89
2021/11/14 10:35:05;;;;;;;19.23;17.43;;;10.80;99.90;;;;;;5032022;28;20272;-89
2021/11/14 10:37:33;;;;;;;18.83;17.03;;;10.90;99.90;;;;;;5025449;28;20243;-90
2021/11/14 10:40:03;;;;;;;19.07;17.27;;;10.90;99.90;;;;;;5038466;28;20705;-90
2021/11/14 10:42:32;;;;;;;18.60;16.90;;;10.90;99.90;;;;;;5027362;28;20565;-89
2021/11/14 10:45:00;;;;;;;18.53;16.67;;;10.70;99.90;;;;;;5024953;28;20185;-90
2021/11/14 10:47:28;;;;;;;17.37;15.73;;;10.70;99.90;;;;;;5015445;28;20576;-90
2021/11/14 10:50:11;;;;;;;19.43;17.43;;;10.60;99.90;;;;;;5030823;28;20258;-89
2021/11/14 10:52:48;;;;;;;19.27;17.30;;;10.50;99.90;;;;;;5033078;28;20281;-89
2021/11/14 10:55:14;;;;;;;17.40;15.70;;;10.50;99.90;;;;;;5035661;28;20220;-90
2021/11/14 10:57:39;;;;;;;18.07;16.33;;;10.60;99.90;;;;;;5019551;28;20216;-89
2021/11/14 11:00:10;;;;;;;18.00;16.20;;;10.60;99.90;;;;;;5039911;28;20268;-90
2021/11/14 11:02:41;;;;;;;19.07;17.20;;;10.70;99.90;;;;;;5006627;28;20193;-90
2021/11/14 11:05:15;;;;;;;18.47;16.57;;;10.60;99.90;;;;;;5037164;28;20724;-90
2021/11/14 11:07:42;;;;;;;17.90;16.10;;;10.70;99.90;;;;;;5040063;28;20289;-90
2021/11/14 11:10:08;;;;;;;17.53;15.83;;;10.70;99.90;;;;;;5028831;28;20193;-90
2021/11/14 11:12:35;;;;;;;18.60;16.80;;;10.70;99.90;;;;;;5032354;28;20181;-90
2021/11/14 11:15:08;;;;;;;18.43;16.63;;;10.70;99.90;;;;;;5002867;28;20252;-90
2021/11/14 11:17:50;;;;;;;18.77;16.90;;;10.70;99.90;;;;;;5034805;28;20224;-89
2021/11/14 11:20:23;;;;;;;18.10;16.30;;;10.70;99.90;;;;;;4998329;28;20201;-90
2021/11/14 11:23:05;;;;;;;19.53;17.53;;;10.80;99.90;;;;;;5025812;28;20189;-89
2021/11/14 11:25:51;;;;;;;18.50;16.70;;;10.80;99.90;;;;;;5018463;28;20181;-89
2021/11/14 11:28:29;;;;;;;18.03;16.13;;;10.80;99.90;;;;;;5032232;28;20285;-90
2021/11/14 11:31:05;;;;;;;19.57;17.67;;;10.90;99.90;;;;;;5040475;28;20205;-89
2021/11/14 11:33:33;;;;;;;17.77;16.03;;;11.00;99.90;;;;;;5038956;28;20661;-90
2021/11/14 11:36:00;;;;;;;19.13;17.13;;;11.00;99.90;;;;;;5038405;28;20246;-89
2021/11/14 11:38:28;;;;;;;19.13;17.23;;;11.10;99.90;;;;;;5018613;28;20241;-92
2021/11/14 11:40:55;;;;;;;17.93;16.23;;;11.10;99.90;;;;;;5018891;28;20249;-90
2021/11/14 11:43:21;;;;;;;18.53;16.70;;;11.10;99.90;;;;;;5016674;28;20576;-89
2021/11/14 11:45:48;;;;;;;16.70;15.20;;;11.00;99.90;;;;;;5013380;28;20763;-90
2021/11/14 11:48:27;;;;;;;18.77;16.40;;;11.00;99.90;;;;;;5034366;28;20750;-89
2021/11/14 11:51:04;;;;;;;27.80;25.13;;;11.00;99.90;;;;;;5035380;28;20198;-89
2021/11/14 11:53:30;;;;;;;17.67;15.97;;;10.90;99.90;;;;;;5037651;28;20211;-89
2021/11/14 11:56:04;;;;;;;20.20;18.20;;;10.90;99.90;;;;;;5023662;28;20208;-90
2021/11/14 11:58:45;;;;;;;17.67;15.97;;;10.90;99.90;;;;;;5022992;28;20223;-89
2021/11/14 12:01:28;;;;;;;17.37;15.67;;;10.90;99.90;;;;;;5022862;28;20181;-90
2021/11/14 12:04:08;;;;;;;17.37;15.60;;;10.90;99.90;;;;;;5001625;28;20260;-90
2021/11/14 12:06:44;;;;;;;17.73;16.03;;;10.90;99.90;;;;;;5015860;28;20213;-89
2021/11/14 12:09:11;;;;;;;17.17;15.57;;;10.90;99.90;;;;;;4997040;28;20198;-90
2021/11/14 12:11:38;;;;;;;18.07;16.27;;;10.80;99.90;;;;;;5022493;28;20209;-90
2021/11/14 12:14:16;;;;;;;17.43;15.63;;;10.90;99.90;;;;;;5013398;28;20198;-90
2021/11/14 12:16:52;;;;;;;18.10;16.30;;;10.80;99.90;;;;;;5030087;28;20204;-90
2021/11/14 12:19:23;;;;;;;17.83;16.00;;;10.80;99.90;;;;;;5031702;28;20267;-90
2021/11/14 12:22:18;;;;;;;17.90;16.07;;;10.80;99.90;;;;;;5029123;28;20179;-90
2021/11/14 12:24:57;;;;;;;18.63;16.83;;;10.80;99.90;;;;;;5022000;28;20169;-90
2021/11/14 12:27:27;;;;;;;19.40;17.37;;;10.80;99.90;;;;;;5051655;28;20410;-89
2021/11/14 12:30:19;;;;;;;17.93;16.20;;;10.70;99.90;;;;;;5042746;28;20301;-90
2021/11/14 12:32:49;;;;;;;18.00;16.20;;;10.80;99.90;;;;;;5027468;28;20205;-90
2021/11/14 12:35:24;;;;;;;19.20;17.40;;;10.90;99.90;;;;;;5019895;28;20284;-90
2021/11/14 12:38:00;;;;;;;35.47;31.83;;;10.80;99.90;;;;;;5041694;28;20244;-90
2021/11/14 12:40:56;;;;;;;44.00;39.90;;;10.80;99.90;;;;;;5033547;28;20676;-90